Time;durP1;ratioP1;P1;durP2;ratioP2;P2;SDS_P1;SDS_P2;PMS_P1;PMS_P2;Temp;Humidity;BMP_temperature;BMP_pressure;BME280_temperature;BME280_humidity;BME280_pressure;Samples;Min_cycle;Max_cycle;Signal;HPM_P1;HPM_P2
2020/12/25 00:04:24;;;;;;;24.10;9.05;;;;;;;5.85;85.31;100568.06;8421306;34;20421;-71
2020/12/25 00:09:27;;;;;;;16.58;8.10;;;;;;;5.84;85.03;100569.84;8419065;33;20184;-70
2020/12/25 00:14:29;;;;;;;19.70;9.13;;;;;;;5.69;83.89;100568.72;8419713;34;20778;-71
2020/12/25 00:19:32;;;;;;;25.67;10.83;;;;;;;5.72;84.24;100573.03;8418054;33;20419;-71
2020/12/25 00:24:35;;;;;;;13.38;7.10;;;;;;;5.64;83.46;100581.31;8418193;34;20433;-71
2020/12/25 00:29:37;;;;;;;13.85;7.88;;;;;;;5.65;83.76;100584.81;8418200;33;20181;-71
2020/12/25 00:34:40;;;;;;;17.83;8.50;;;;;;;5.56;83.64;100596.69;8417784;34;20187;-71
2020/12/25 00:39:43;;;;;;;14.70;7.57;;;;;;;5.50;83.21;100605.75;8419252;33;20428;-70
2020/12/25 00:44:45;;;;;;;16.25;7.88;;;;;;;5.50;83.16;100604.91;8419518;34;20428;-71
2020/12/25 00:49:47;;;;;;;15.57;8.40;;;;;;;5.49;83.14;100612.00;8417725;33;20247;-71
2020/12/25 00:54:51;;;;;;;13.93;7.50;;;;;;;5.40;83.42;100609.72;8412460;34;20500;-69
2020/12/25 00:59:53;;;;;;;15.77;8.17;;;;;;;5.31;82.46;100613.59;8413636;33;20611;-71
2020/12/25 01:04:56;;;;;;;14.02;6.57;;;;;;;5.30;82.96;100617.19;8415154;34;21229;-70
2020/12/25 01:09:59;;;;;;;13.37;7.40;;;;;;;5.30;83.20;100633.09;8413418;33;20476;-71
2020/12/25 01:15:01;;;;;;;13.55;6.43;;;;;;;5.26;83.01;100643.88;8414263;34;20644;-70
2020/12/25 01:20:03;;;;;;;9.93;6.20;;;;;;;5.20;82.87;100652.06;8412228;34;20235;-71
2020/12/25 01:25:07;;;;;;;11.57;5.88;;;;;;;5.19;82.86;100661.81;8410299;34;20359;-70
2020/12/25 01:30:09;;;;;;;12.82;6.03;;;;;;;5.20;83.23;100666.16;8398144;33;20230;-71
2020/12/25 01:35:12;;;;;;;13.90;6.13;;;;;;;5.07;82.77;100662.28;8396834;34;20497;-71
2020/12/25 01:40:15;;;;;;;11.85;7.25;;;;;;;5.01;82.41;100667.81;8378160;34;20427;-71
2020/12/25 01:45:17;;;;;;;13.43;6.20;;;;;;;4.96;82.29;100675.09;8412775;34;20193;-70
2020/12/25 01:50:28;;;;;;;11.50;5.85;;;;;;;4.97;82.71;100667.09;8411794;33;20153;-70
2020/12/25 01:55:33;;;;;;;10.98;6.22;;;;;;;4.94;82.49;100675.16;8414560;34;20233;-71
2020/12/25 02:00:35;;;;;;;17.33;7.20;;;;;;;4.86;81.75;100688.69;8418020;33;20181;-71
2020/12/25 02:05:39;;;;;;;12.50;6.67;;;;;;;4.85;81.73;100692.28;8422714;34;20764;-71
2020/12/25 02:10:43;;;;;;;14.83;6.70;;;;;;;4.81;82.05;100692.44;8424660;33;20481;-72
2020/12/25 02:15:45;;;;;;;8.97;5.70;;;;;;;4.74;82.44;100701.53;8423170;34;20546;-71
2020/12/25 02:20:48;;;;;;;13.13;6.28;;;;;;;4.67;82.30;100707.06;8428331;34;20193;-70
2020/12/25 02:25:51;;;;;;;11.27;6.60;;;;;;;4.62;82.56;100709.00;8423335;33;20431;-72
2020/12/25 02:30:53;;;;;;;12.70;6.70;;;;;;;4.56;82.51;100718.97;8423298;34;20142;-72
2020/12/25 02:35:56;;;;;;;10.50;5.90;;;;;;;4.57;82.58;100724.19;8424099;33;21468;-72
2020/12/25 02:40:59;;;;;;;14.77;7.47;;;;;;;4.49;82.23;100728.88;8424565;34;21053;-73
2020/12/25 02:46:01;;;;;;;14.27;7.07;;;;;;;4.33;81.04;100733.00;8424999;33;20428;-69
2020/12/25 02:51:03;;;;;;;13.07;7.10;;;;;;;4.46;82.22;100735.16;8427163;34;20281;-70
2020/12/25 02:56:07;;;;;;;12.93;7.27;;;;;;;4.46;81.68;100743.09;8430267;33;20523;-70
2020/12/25 03:01:11;;;;;;;12.37;6.93;;;;;;;4.43;82.03;100753.78;8435179;34;21008;-70
2020/12/25 03:06:13;;;;;;;11.80;6.50;;;;;;;4.43;81.92;100760.88;8434436;33;20208;-69
2020/12/25 03:11:17;;;;;;;12.60;6.10;;;;;;;4.27;80.86;100754.38;8431389;34;20559;-70
2020/12/25 03:16:19;;;;;;;9.23;5.27;;;;;;;4.14;80.92;100761.88;8406867;33;20448;-70
2020/12/25 03:21:21;;;;;;;11.33;5.27;;;;;;;4.04;80.86;100771.91;8430402;34;20191;-70
2020/12/25 03:26:25;;;;;;;6.83;4.43;;;;;;;3.96;80.68;100773.94;8429117;33;20530;-71
2020/12/25 03:31:27;;;;;;;6.90;4.43;;;;;;;3.93;80.58;100772.28;8426746;34;20560;-69
2020/12/25 03:36:30;;;;;;;7.63;4.80;;;;;;;3.97;80.73;100776.53;8398542;34;20615;-69
2020/12/25 03:41:34;;;;;;;6.93;4.67;;;;;;;4.07;80.79;100786.81;8399861;34;22066;-66
2020/12/25 03:46:37;;;;;;;6.57;4.60;;;;;;;4.14;81.33;100790.97;8398155;33;20470;-69
2020/12/25 03:51:39;;;;;;;7.87;4.40;;;;;;;4.24;81.68;100800.31;8397786;34;20506;-69
2020/12/25 03:56:42;;;;;;;6.93;4.90;;;;;;;4.29;82.27;100814.25;8405222;33;20196;-69
2020/12/25 04:01:45;;;;;;;9.77;5.90;;;;;;;4.27;81.96;100802.00;8397084;34;20435;-69
2020/12/25 04:06:47;;;;;;;10.30;5.80;;;;;;;4.25;81.44;100820.59;8394988;33;20177;-69
2020/12/25 04:11:51;;;;;;;10.27;6.38;;;;;;;4.19;80.58;100834.84;8397496;34;21036;-69
2020/12/25 04:16:53;;;;;;;12.47;7.10;;;;;;;4.09;79.80;100840.53;8398010;34;20401;-70
2020/12/25 04:21:55;;;;;;;11.40;7.03;;;;;;;4.01;80.23;100841.63;8397793;34;20595;-70
2020/12/25 04:26:59;;;;;;;15.77;6.57;;;;;;;3.99;80.12;100851.38;8395348;34;20177;-70
2020/12/25 04:32:02;;;;;;;16.43;7.50;;;;;;;3.99;80.52;100843.44;8395010;34;20432;-71
2020/12/25 04:37:04;;;;;;;15.97;7.43;;;;;;;3.99;80.51;100842.59;8404126;33;20577;-70
2020/12/25 04:42:08;;;;;;;15.13;7.80;;;;;;;3.92;80.67;100857.78;8394466;34;20196;-70
2020/12/25 04:47:11;;;;;;;15.73;7.77;;;;;;;3.80;80.67;100863.44;8394761;33;20439;-71
2020/12/25 04:52:14;;;;;;;15.07;7.63;;;;;;;3.75;81.28;100874.16;8394646;34;20231;-70
2020/12/25 04:57:18;;;;;;;16.97;7.77;;;;;;;3.68;80.96;100879.69;8395285;34;20572;-70
2020/12/25 05:02:21;;;;;;;14.20;7.53;;;;;;;3.64;81.44;100884.19;8394782;34;20857;-71
2020/12/25 05:07:25;;;;;;;18.47;7.10;;;;;;;3.65;80.76;100898.25;8386959;33;20145;-70
2020/12/25 05:12:28;;;;;;;15.87;7.43;;;;;;;3.69;81.13;100899.91;8389636;34;20182;-70
2020/12/25 05:17:32;;;;;;;20.30;7.63;;;;;;;3.78;81.12;100896.97;8391514;33;20546;-70
2020/12/25 05:22:34;;;;;;;16.70;7.30;;;;;;;3.85;81.69;100902.97;8387731;34;20418;-70
2020/12/25 05:27:37;;;;;;;16.37;7.07;;;;;;;3.89;81.51;100915.16;8418680;34;20238;-70
2020/12/25 05:32:44;;;;;;;13.93;6.97;;;;;;;3.92;81.94;100910.66;8417976;34;20209;-70
2020/12/25 05:37:47;;;;;;;14.03;7.27;;;;;;;4.00;81.98;100919.22;8419968;34;20231;-70
2020/12/25 05:42:51;;;;;;;11.67;6.90;;;;;;;4.03;82.37;100923.53;8423033;34;21474;-70
2020/12/25 05:48:05;;;;;;;14.47;7.77;;;;;;;4.09;82.56;100927.78;8424204;33;21546;-70
2020/12/25 05:53:07;;;;;;;14.03;6.50;;;;;;;4.04;81.46;100935.84;8428790;34;20430;-70
2020/12/25 05:58:13;;;;;;;11.40;6.17;;;;;;;4.07;82.44;100930.47;8430379;33;20142;-70
2020/12/25 06:03:16;;;;;;;16.93;6.63;;;;;;;4.06;82.31;100944.59;8429444;34;20451;-70
2020/12/25 06:08:29;;;;;;;15.77;6.00;;;;;;;4.09;82.25;100955.09;8429956;33;20157;-70
2020/12/25 06:13:41;;;;;;;11.80;6.40;;;;;;;3.82;80.88;100967.34;8429226;34;20462;-69
2020/12/25 06:18:56;;;;;;;10.87;4.90;;;;;;;3.97;81.85;100977.47;8429146;33;20607;-70
2020/12/25 06:24:00;;;;;;;11.17;5.77;;;;;;;4.05;82.08;100969.31;8430288;34;20875;-70
2020/12/25 06:29:04;;;;;;;11.33;5.10;;;;;;;4.00;81.67;100966.81;8414399;33;21982;-69
2020/12/25 06:34:06;;;;;;;13.77;5.50;;;;;;;3.76;80.31;100972.84;8433705;34;20531;-69
2020/12/25 06:39:11;;;;;;;10.07;4.53;;;;;;;3.56;80.68;100982.22;8429377;33;20292;-70
2020/12/25 06:44:17;;;;;;;10.93;4.93;;;;;;;3.44;80.71;100981.69;8429848;34;20612;-69
2020/12/25 06:49:21;;;;;;;8.97;3.63;;;;;;;3.58;80.20;100995.34;8429887;33;20188;-69
2020/12/25 06:54:24;;;;;;;6.63;3.77;;;;;;;3.50;80.66;100997.34;8431326;34;20138;-70
2020/12/25 06:59:27;;;;;;;8.03;3.40;;;;;;;3.55;81.26;101006.88;8437200;33;21162;-70
2020/12/25 07:04:31;;;;;;;9.83;2.80;;;;;;;3.68;82.32;101012.69;8441169;34;20461;-70
2020/12/25 07:09:39;;;;;;;5.83;3.33;;;;;;;3.71;82.27;101002.03;8429433;33;20191;-69
2020/12/25 07:14:43;;;;;;;6.23;2.40;;;;;;;3.75;82.11;101010.72;8427988;34;20419;-70
2020/12/25 07:19:45;;;;;;;6.07;2.43;;;;;;;3.65;81.90;101014.53;8427657;33;20857;-72
2020/12/25 07:24:48;;;;;;;8.40;3.40;;;;;;;3.49;82.36;101027.34;8427542;34;21577;-70
2020/12/25 07:29:53;;;;;;;7.73;2.60;;;;;;;3.31;81.79;101031.31;8430948;33;20196;-69
2020/12/25 07:34:55;;;;;;;4.27;2.70;;;;;;;3.06;81.40;101031.94;8419444;34;20466;-69
2020/12/25 07:39:57;;;;;;;4.07;2.80;;;;;;;2.90;81.88;101036.75;8431150;34;20152;-70
2020/12/25 07:45:02;;;;;;;4.23;2.60;;;;;;;2.76;82.06;101052.06;8420399;34;20197;-70
2020/12/25 07:50:04;;;;;;;8.70;3.23;;;;;;;2.70;82.64;101062.75;8430238;33;20233;-71
2020/12/25 07:55:08;;;;;;;14.77;3.30;;;;;;;2.64;81.99;101073.47;8431194;34;20464;-70
2020/12/25 08:00:11;;;;;;;4.53;2.93;;;;;;;2.50;82.17;101065.88;8439688;34;20864;-71
2020/12/25 08:05:14;;;;;;;9.47;2.60;;;;;;;2.72;81.87;101062.75;8445609;34;20464;-70
2020/12/25 08:10:18;;;;;;;7.10;2.60;;;;;;;2.85;81.33;101070.34;8429379;33;20486;-70
2020/12/25 08:15:22;;;;;;;5.83;2.00;;;;;;;3.24;79.98;101072.88;8441245;34;20278;-70
2020/12/25 08:20:24;;;;;;;3.27;2.03;;;;;;;3.78;77.88;101064.41;8412219;34;20464;-70
2020/12/25 08:25:27;;;;;;;5.53;2.00;;;;;;;3.99;76.85;101072.63;8429033;34;20157;-70
2020/12/25 08:30:31;;;;;;;7.23;2.30;;;;;;;4.14;76.78;101080.13;8431931;33;20452;-70
2020/12/25 08:35:33;;;;;;;4.22;2.03;;;;;;;4.14;75.67;101090.69;8433710;34;21345;-69
2020/12/25 08:40:37;;;;;;;7.18;2.42;;;;;;;3.63;77.38;101091.22;8444009;33;20611;-69
2020/12/25 08:45:55;;;;;;;6.37;2.67;;;;;;;3.62;78.20;101085.97;8442977;34;21456;-69
2020/12/25 08:51:07;;;;;;;9.75;2.25;;;;;;;3.54;78.25;101092.34;8442490;34;20558;-69
2020/12/25 08:56:15;;;;;;;6.57;2.70;;;;;;;3.90;78.98;101097.53;8443531;33;20505;-70
2020/12/25 09:01:18;;;;;;;5.15;2.80;;;;;;;3.84;78.43;101112.69;8422242;34;20219;-70
2020/12/25 09:06:20;;;;;;;5.77;3.17;;;;;;;3.51;78.86;101110.03;8444159;33;20158;-71
2020/12/25 09:11:25;;;;;;;7.75;3.40;;;;;;;3.81;77.59;101107.50;8443213;34;20439;-71
2020/12/25 09:16:28;;;;;;;6.03;3.00;;;;;;;3.96;77.22;101113.22;8444128;33;20223;-69
2020/12/25 09:21:31;;;;;;;4.70;2.50;;;;;;;4.36;77.51;101129.72;8443442;34;20416;-70
2020/12/25 09:26:33;;;;;;;7.23;3.20;;;;;;;4.33;76.63;101127.16;8447894;33;20308;-70
2020/12/25 09:31:36;;;;;;;4.30;2.40;;;;;;;4.56;77.18;101140.59;8448744;34;20251;-70
2020/12/25 09:36:43;;;;;;;5.07;2.45;;;;;;;4.70;77.22;101147.28;8444989;33;20426;-69
2020/12/25 09:41:48;;;;;;;5.50;2.60;;;;;;;4.56;76.78;101142.38;8443141;34;20231;-69
2020/12/25 09:46:52;;;;;;;13.23;3.50;;;;;;;4.58;77.40;101143.19;8443063;33;20505;-69
2020/12/25 09:51:56;;;;;;;3.90;2.10;;;;;;;4.54;76.25;101150.38;8444918;34;20462;-70
2020/12/25 09:56:58;;;;;;;4.43;1.97;;;;;;;5.31;76.12;101140.88;8446145;33;20149;-70
2020/12/25 10:02:01;;;;;;;6.50;2.20;;;;;;;6.61;67.87;101138.06;8444674;34;20291;-70
2020/12/25 10:07:04;;;;;;;3.88;2.05;;;;;;;7.40;69.73;101127.81;8444864;34;20466;-70
2020/12/25 10:12:06;;;;;;;5.90;2.15;;;;;;;6.32;68.46;101130.34;8442045;34;20415;-69
2020/12/25 10:17:09;;;;;;;4.10;2.03;;;;;;;6.00;68.96;101135.88;8433139;33;20840;-71
2020/12/25 10:22:11;;;;;;;3.40;2.30;;;;;;;6.17;71.07;101152.97;8434029;34;20158;-69
2020/12/25 10:27:14;;;;;;;4.25;1.63;;;;;;;6.16;69.41;101151.25;8434334;33;20461;-69
2020/12/25 10:32:17;;;;;;;5.13;3.35;;;;;;;6.15;72.81;101152.19;8433186;34;20138;-70
2020/12/25 10:37:20;;;;;;;5.00;1.88;;;;;;;6.16;74.36;101144.16;8437137;33;20150;-69
2020/12/25 10:42:24;;;;;;;2.78;2.08;;;;;;;6.83;76.62;101134.59;8428278;34;20590;-70
2020/12/25 10:47:27;;;;;;;4.72;2.45;;;;;;;7.91;72.68;101142.47;8431867;33;20431;-69
2020/12/25 10:52:29;;;;;;;5.00;2.45;;;;;;;8.90;71.31;101130.91;8436144;34;20701;-69
2020/12/25 10:57:32;;;;;;;2.97;1.63;;;;;;;9.77;60.09;101139.03;8436636;33;21126;-70
2020/12/25 11:02:35;;;;;;;5.78;1.75;;;;;;;10.59;67.14;101128.44;8438420;34;20500;-71
2020/12/25 11:07:37;;;;;;;7.78;1.83;;;;;;;9.59;60.58;101132.81;8430391;33;21146;-70
2020/12/25 11:12:40;;;;;;;5.75;1.92;;;;;;;8.55;62.53;101132.56;8429134;34;20420;-71
2020/12/25 11:17:44;;;;;;;5.97;2.42;;;;;;;8.86;68.79;101137.31;8427687;33;20449;-70
2020/12/25 11:22:46;;;;;;;2.20;2.00;;;;;;;8.35;63.85;101133.44;8428008;34;20435;-69
2020/12/25 11:27:48;;;;;;;4.75;1.60;;;;;;;7.10;66.16;101124.63;8428034;33;20134;-70
2020/12/25 11:32:51;;;;;;;2.30;1.63;;;;;;;7.17;68.00;101130.56;8427731;34;20189;-69
2020/12/25 11:37:54;;;;;;;3.67;1.90;;;;;;;7.89;73.08;101116.88;8426393;33;20458;-70
2020/12/25 11:42:56;;;;;;;6.03;2.03;;;;;;;10.62;64.05;101122.06;8429163;34;20485;-69
2020/12/25 11:47:59;;;;;;;7.13;2.63;;;;;;;12.58;56.01;101109.56;8437913;33;20158;-70
2020/12/25 11:53:02;;;;;;;8.52;3.30;;;;;;;13.40;52.54;101105.13;8440423;34;20417;-70
2020/12/25 11:58:04;;;;;;;5.22;3.42;;;;;;;13.96;50.90;101103.09;8443672;33;20507;-67
2020/12/25 12:03:07;;;;;;;3.90;2.47;;;;;;;14.29;47.82;101096.28;8445508;34;20169;-70
2020/12/25 12:08:11;;;;;;;6.97;2.08;;;;;;;13.77;47.83;101095.44;8449653;33;20177;-67
2020/12/25 12:13:13;;;;;;;3.92;1.92;;;;;;;13.53;48.12;101084.56;8447478;34;20416;-67
2020/12/25 12:18:16;;;;;;;1.45;1.20;;;;;;;11.75;49.40;101099.44;8444184;34;20284;-69
2020/12/25 12:23:18;;;;;;;2.30;1.33;;;;;;;11.62;50.57;101109.16;8432000;34;20185;-71
2020/12/25 12:28:21;;;;;;;3.13;1.20;;;;;;;11.84;48.43;101108.72;8428320;34;20439;-70
2020/12/25 12:33:24;;;;;;;2.42;1.23;;;;;;;10.90;51.08;101114.22;8427398;34;20149;-69
2020/12/25 12:38:26;;;;;;;4.15;1.10;;;;;;;11.13;51.00;101115.59;8426088;33;20156;-69
2020/12/25 12:43:29;;;;;;;2.10;1.13;;;;;;;11.89;49.72;101113.84;8424453;34;20436;-70
2020/12/25 12:48:32;;;;;;;1.98;1.10;;;;;;;11.18;50.77;101119.81;8428080;33;20467;-71
2020/12/25 12:53:34;;;;;;;1.27;1.00;;;;;;;11.60;49.76;101126.25;8418342;34;20431;-69
2020/12/25 12:58:37;;;;;;;1.10;1.00;;;;;;;11.86;48.44;101112.22;8424154;33;20173;-70
2020/12/25 13:03:41;;;;;;;2.00;1.10;;;;;;;11.28;50.59;101107.63;8422567;34;20416;-70
2020/12/25 13:08:43;;;;;;;1.23;0.90;;;;;;;11.77;50.25;101110.94;8399885;33;20851;-70
2020/12/25 13:13:46;;;;;;;1.40;1.05;;;;;;;12.73;49.53;101107.72;8422801;34;20459;-71
2020/12/25 13:18:49;;;;;;;1.65;1.15;;;;;;;13.43;47.22;101105.78;8421672;33;20472;-70
2020/12/25 13:23:52;;;;;;;1.67;0.93;;;;;;;12.62;48.59;101095.88;8419574;34;20300;-70
2020/12/25 13:28:55;;;;;;;2.75;1.25;;;;;;;11.68;49.94;101105.25;8423007;33;20185;-70
2020/12/25 13:33:58;;;;;;;3.33;1.02;;;;;;;10.89;51.46;101101.81;8394342;34;20511;-69
2020/12/25 13:39:01;;;;;;;2.50;1.15;;;;;;;10.74;51.31;101100.00;8417952;33;21445;-68
2020/12/25 13:44:03;;;;;;;2.13;1.60;;;;;;;11.13;51.18;101104.91;8421765;34;21030;-69
2020/12/25 13:49:06;;;;;;;4.85;1.30;;;;;;;11.16;52.30;101103.84;8421638;33;20189;-69
2020/12/25 13:54:09;;;;;;;1.58;1.38;;;;;;;11.38;52.13;101098.13;8424101;34;20181;-68
2020/12/25 13:59:11;;;;;;;1.45;1.00;;;;;;;10.02;54.35;101115.44;8420460;34;20567;-69
2020/12/25 14:04:14;;;;;;;4.72;1.55;;;;;;;8.29;60.39;101120.44;8417303;34;20633;-70
2020/12/25 14:09:16;;;;;;;2.63;1.65;;;;;;;7.44;64.44;101129.44;8416456;33;20197;-69
2020/12/25 14:14:19;;;;;;;3.03;1.38;;;;;;;7.62;63.38;101125.09;8419764;34;20513;-68
2020/12/25 14:19:22;;;;;;;2.25;2.00;;;;;;;7.70;64.05;101130.97;8423831;33;20645;-68
2020/12/25 14:24:24;;;;;;;4.90;2.53;;;;;;;6.93;66.37;101127.97;8425712;34;20233;-69
2020/12/25 14:29:27;;;;;;;4.50;2.15;;;;;;;6.84;67.27;101131.00;8422642;33;21067;-68
2020/12/25 14:34:30;;;;;;;3.85;2.40;;;;;;;7.10;66.15;101133.50;8366371;34;21193;-68
2020/12/25 14:39:32;;;;;;;5.05;2.28;;;;;;;6.83;67.05;101126.63;8365107;34;20429;-68
2020/12/25 14:44:34;;;;;;;3.50;2.78;;;;;;;6.85;67.56;101138.03;8370306;34;20189;-70
2020/12/25 14:49:39;;;;;;;4.78;2.88;;;;;;;6.84;67.11;101144.28;8371833;34;20150;-69
2020/12/25 14:54:41;;;;;;;5.40;3.20;;;;;;;6.33;68.42;101153.28;8371114;34;20490;-70
2020/12/25 14:59:43;;;;;;;6.75;3.78;;;;;;;5.64;70.94;101164.53;8378798;34;20606;-69
2020/12/25 15:04:47;;;;;;;8.20;3.53;;;;;;;5.43;71.60;101167.88;8424837;34;20520;-70
2020/12/25 15:09:49;;;;;;;6.25;3.28;;;;;;;4.91;72.97;101173.09;8424521;33;20428;-69
2020/12/25 15:14:51;;;;;;;5.38;3.83;;;;;;;4.70;74.67;101190.50;8425297;34;20162;-69
2020/12/25 15:19:55;;;;;;;5.05;3.25;;;;;;;4.68;74.59;101192.31;8420590;33;20462;-68
2020/12/25 15:24:58;;;;;;;7.05;4.20;;;;;;;4.50;75.19;101187.53;8414409;34;21014;-68
2020/12/25 15:30:00;;;;;;;6.57;4.28;;;;;;;4.33;75.39;101190.66;8413980;33;20483;-69
2020/12/25 15:35:03;;;;;;;7.15;4.45;;;;;;;4.25;76.24;101198.84;8414643;34;20938;-69
2020/12/25 15:40:06;;;;;;;5.10;4.03;;;;;;;4.19;76.16;101199.00;8413568;33;20228;-70
2020/12/25 15:45:08;;;;;;;7.57;4.80;;;;;;;4.15;75.95;101203.50;8417637;34;21993;-69
2020/12/25 15:50:11;;;;;;;11.88;4.88;;;;;;;3.77;77.35;101201.88;8416524;33;20404;-69
2020/12/25 15:55:13;;;;;;;10.20;5.20;;;;;;;3.85;77.46;101215.75;8418313;34;20193;-69
2020/12/25 16:00:17;;;;;;;10.60;6.03;;;;;;;3.87;77.43;101213.94;8417739;33;20440;-70
2020/12/25 16:05:22;;;;;;;7.70;5.45;;;;;;;3.77;77.37;101212.44;8418724;34;20426;-70
2020/12/25 16:10:24;;;;;;;9.07;5.22;;;;;;;3.57;77.83;101226.16;8418259;33;21385;-69
2020/12/25 16:15:28;;;;;;;10.70;6.20;;;;;;;3.44;78.59;101225.59;8421692;34;20570;-69
2020/12/25 16:20:32;;;;;;;12.63;7.33;;;;;;;3.44;78.30;101230.00;8430079;33;20154;-69
2020/12/25 16:25:34;;;;;;;21.73;11.30;;;;;;;3.55;78.48;101231.47;8431168;34;20453;-69
2020/12/25 16:30:36;;;;;;;13.63;6.97;;;;;;;3.36;78.50;101232.81;8440047;33;20239;-69
2020/12/25 16:35:40;;;;;;;14.00;7.10;;;;;;;3.26;79.06;101240.09;8444560;34;20185;-69
2020/12/25 16:40:42;;;;;;;14.97;8.27;;;;;;;3.23;79.31;101231.38;8448460;33;20520;-69
2020/12/25 16:45:44;;;;;;;14.40;8.20;;;;;;;3.20;79.22;101239.34;8444499;34;20192;-69
2020/12/25 16:50:47;;;;;;;20.23;11.47;;;;;;;3.11;79.57;101245.72;8432655;33;20166;-69
2020/12/25 16:55:50;;;;;;;19.50;8.90;;;;;;;3.05;79.61;101240.59;8410607;34;20558;-69
2020/12/25 17:00:52;;;;;;;13.80;8.70;;;;;;;3.04;79.65;101242.34;8429998;33;21953;-69
2020/12/25 17:05:57;;;;;;;21.40;11.67;;;;;;;3.05;79.95;101246.72;8428276;33;20181;-69
2020/12/25 17:10:59;;;;;;;14.33;7.93;;;;;;;3.05;79.99;101244.09;8435032;34;20584;-69
2020/12/25 17:16:02;;;;;;;32.00;15.40;;;;;;;3.08;79.83;101245.78;8438266;34;20192;-69
2020/12/25 17:21:08;;;;;;;17.35;8.25;;;;;;;3.00;80.04;101253.00;8421510;34;20435;-69
2020/12/25 17:26:13;;;;;;;13.57;8.00;;;;;;;3.03;80.08;101243.25;8417837;33;20269;-69
2020/12/25 17:31:16;;;;;;;17.83;9.43;;;;;;;2.98;80.09;101238.97;8426913;34;21474;-69
2020/12/25 17:36:20;;;;;;;25.67;14.10;;;;;;;2.89;80.14;101258.53;8426359;33;20436;-72
2020/12/25 17:41:22;;;;;;;28.13;18.27;;;;;;;2.80;80.34;101254.31;8426662;34;20481;-69
2020/12/25 17:46:25;;;;;;;34.23;19.97;;;;;;;2.71;79.99;101264.16;8428107;33;20323;-69
2020/12/25 17:51:28;;;;;;;19.83;11.07;;;;;;;2.62;80.76;101250.25;8434424;34;20438;-70
2020/12/25 17:56:30;;;;;;;21.23;11.77;;;;;;;2.62;80.79;101254.69;8435552;33;20150;-69
2020/12/25 18:01:33;;;;;;;22.23;10.43;;;;;;;2.61;80.57;101263.50;8437628;34;20425;-69
2020/12/25 18:06:36;;;;;;;21.90;11.47;;;;;;;2.63;80.57;101273.13;8437979;33;22040;-69
2020/12/25 18:11:38;;;;;;;26.73;12.17;;;;;;;2.63;80.55;101283.69;8444003;34;20442;-69
2020/12/25 18:16:44;;;;;;;21.93;12.60;;;;;;;2.53;80.33;101282.13;8454014;33;20193;-70
2020/12/25 18:21:49;;;;;;;26.33;13.40;;;;;;;2.38;80.64;101277.13;8453738;34;20196;-69
2020/12/25 18:26:51;;;;;;;37.27;21.30;;;;;;;2.39;80.47;101269.19;8454114;33;20486;-70
2020/12/25 18:31:53;;;;;;;78.50;45.40;;;;;;;2.39;80.68;101273.59;8455683;34;20153;-70
2020/12/25 18:36:56;;;;;;;30.97;19.00;;;;;;;2.42;80.67;101278.81;8455017;33;20561;-70
2020/12/25 18:41:59;;;;;;;28.70;16.77;;;;;;;2.49;80.56;101275.16;8454503;34;20452;-69
2020/12/25 18:47:04;;;;;;;26.83;13.27;;;;;;;2.55;80.46;101274.16;8454473;33;20451;-69
2020/12/25 18:52:07;;;;;;;25.57;13.87;;;;;;;2.60;80.07;101291.63;8449005;34;20564;-70
2020/12/25 18:57:13;;;;;;;34.77;15.67;;;;;;;2.53;80.13;101279.47;8451772;33;20193;-70
2020/12/25 19:02:16;;;;;;;28.25;14.15;;;;;;;2.45;80.51;101284.91;8453903;34;20478;-70
2020/12/25 19:07:19;;;;;;;40.37;18.40;;;;;;;2.51;80.56;101283.03;8454711;33;20416;-70
2020/12/25 19:12:21;;;;;;;35.27;17.43;;;;;;;2.57;80.38;101278.50;8452506;34;20138;-69
2020/12/25 19:17:24;;;;;;;22.87;13.03;;;;;;;2.56;80.00;101281.19;8454925;33;20898;-70
2020/12/25 19:22:28;;;;;;;30.80;14.50;;;;;;;2.55;79.52;101275.06;8448608;34;22871;-68
2020/12/25 19:27:30;;;;;;;24.63;12.63;;;;;;;2.48;80.30;101277.81;8446202;33;20409;-70
2020/12/25 19:32:32;;;;;;;27.43;12.80;;;;;;;2.43;80.46;101285.81;8442788;34;20693;-69
2020/12/25 19:37:36;;;;;;;30.67;14.50;;;;;;;2.39;81.29;101295.56;8437265;33;20464;-70
2020/12/25 19:42:38;;;;;;;27.40;13.33;;;;;;;2.41;81.04;101284.97;8436805;34;20431;-70
2020/12/25 19:47:41;;;;;;;25.73;12.87;;;;;;;2.36;81.02;101300.00;8439586;33;20454;-70
2020/12/25 19:52:44;;;;;;;29.40;12.93;;;;;;;2.52;81.18;101303.22;8443431;34;20177;-70
2020/12/25 19:57:47;;;;;;;22.43;11.23;;;;;;;2.66;81.38;101288.91;8443579;33;20229;-70
2020/12/25 20:02:49;;;;;;;28.57;12.37;;;;;;;2.78;80.78;101277.22;8435618;34;20421;-69
2020/12/25 20:07:52;;;;;;;25.63;12.93;;;;;;;2.78;80.75;101292.19;8435044;33;20185;-70
2020/12/25 20:12:55;;;;;;;27.87;11.53;;;;;;;2.75;80.51;101292.25;8433126;34;20281;-70
2020/12/25 20:17:57;;;;;;;23.27;11.17;;;;;;;2.61;81.31;101284.63;8389301;34;20423;-70
2020/12/25 20:23:00;;;;;;;27.43;12.53;;;;;;;2.47;81.94;101276.97;8332805;34;20332;-69
2020/12/25 20:28:02;;;;;;;27.90;12.23;;;;;;;2.68;81.65;101265.97;8326249;34;21973;-69
2020/12/25 20:33:06;;;;;;;24.40;12.07;;;;;;;2.85;81.02;101278.84;8288891;34;20566;-69
2020/12/25 20:38:09;;;;;;;29.23;11.90;;;;;;;2.95;80.93;101278.63;8344568;34;20988;-69
2020/12/25 20:43:11;;;;;;;21.70;10.77;;;;;;;2.99;80.69;101285.56;8350330;34;20300;-69
2020/12/25 20:48:14;;;;;;;26.50;10.97;;;;;;;2.97;80.88;101258.38;8349241;34;20537;-69
2020/12/25 20:53:17;;;;;;;27.90;11.13;;;;;;;2.95;81.18;101268.94;8355128;34;21061;-69
2020/12/25 20:58:19;;;;;;;28.03;11.60;;;;;;;3.09;80.75;101266.88;8357665;34;20283;-69
2020/12/25 21:03:21;;;;;;;23.47;11.63;;;;;;;2.95;80.23;101260.16;8366713;34;20198;-69
2020/12/25 21:08:25;;;;;;;28.13;12.20;;;;;;;2.77;80.22;101253.47;8378450;34;20474;-69
2020/12/25 21:13:28;;;;;;;26.07;12.07;;;;;;;2.66;80.65;101256.34;8364662;34;20427;-69
2020/12/25 21:18:30;;;;;;;24.67;10.37;;;;;;;2.65;81.40;101260.75;8342844;34;20327;-69
2020/12/25 21:23:34;;;;;;;23.90;11.13;;;;;;;2.59;81.57;101260.88;8334040;34;20545;-67
2020/12/25 21:28:36;;;;;;;26.17;10.53;;;;;;;2.63;81.90;101261.69;8352563;34;20426;-69
2020/12/25 21:33:38;;;;;;;25.03;10.53;;;;;;;2.70;81.69;101262.44;8336288;34;20336;-69
2020/12/25 21:38:42;;;;;;;27.73;11.10;;;;;;;2.86;81.68;101255.94;8339383;34;20467;-69
2020/12/25 21:43:44;;;;;;;21.60;10.90;;;;;;;2.91;81.40;101251.44;8352547;34;20829;-69
2020/12/25 21:48:47;;;;;;;26.20;11.37;;;;;;;2.98;81.38;101257.44;8340703;34;21143;-69
2020/12/25 21:53:51;;;;;;;29.17;12.10;;;;;;;2.94;80.89;101269.84;8334721;34;20435;-69
2020/12/25 21:58:53;;;;;;;24.17;11.20;;;;;;;2.94;80.81;101256.66;8344486;34;20571;-69
2020/12/25 22:03:56;;;;;;;22.43;9.80;;;;;;;2.99;80.90;101256.53;8360000;34;20644;-69
2020/12/25 22:08:59;;;;;;;24.47;11.90;;;;;;;2.94;80.98;101240.81;8357458;34;20553;-69
2020/12/25 22:14:02;;;;;;;27.03;12.03;;;;;;;2.93;81.10;101235.56;8365942;34;20216;-69
2020/12/25 22:19:05;;;;;;;19.23;11.00;;;;;;;2.92;81.17;101244.38;8371292;34;20146;-70
2020/12/25 22:24:08;;;;;;;27.83;11.67;;;;;;;2.77;81.85;101235.00;8374890;34;20417;-69
2020/12/25 22:29:10;;;;;;;25.80;11.77;;;;;;;2.87;81.35;101226.00;8366943;34;20137;-69
2020/12/25 22:34:14;;;;;;;22.20;11.83;;;;;;;2.82;81.30;101233.16;8370132;34;20296;-69
2020/12/25 22:39:20;;;;;;;24.93;11.17;;;;;;;2.73;81.84;101233.34;8373635;34;20186;-69
2020/12/25 22:44:22;;;;;;;26.67;10.37;;;;;;;2.71;81.73;101227.22;8371077;34;20147;-69
2020/12/25 22:49:25;;;;;;;20.43;10.87;;;;;;;2.57;82.40;101235.44;8371971;34;21268;-69
2020/12/25 22:54:28;;;;;;;24.47;11.00;;;;;;;2.53;82.54;101250.47;8378170;34;20440;-69
2020/12/25 22:59:30;;;;;;;23.40;12.23;;;;;;;2.56;82.09;101255.66;8374905;34;20189;-69
2020/12/25 23:04:33;;;;;;;29.20;12.13;;;;;;;2.58;82.20;101248.59;8374088;34;20182;-69
2020/12/25 23:09:36;;;;;;;24.10;10.77;;;;;;;2.58;82.16;101259.16;8376550;34;20429;-70
2020/12/25 23:14:38;;;;;;;23.40;11.20;;;;;;;2.61;82.58;101242.41;8376461;34;20533;-69
2020/12/25 23:19:41;;;;;;;21.27;11.73;;;;;;;2.78;82.77;101231.50;8375763;34;20151;-69
2020/12/25 23:24:44;;;;;;;20.83;11.30;;;;;;;2.75;82.76;101231.56;8375278;34;20412;-69
2020/12/25 23:29:46;;;;;;;22.63;11.43;;;;;;;2.79;82.94;101225.28;8375546;34;20870;-69
2020/12/25 23:34:48;;;;;;;21.87;12.27;;;;;;;2.82;82.77;101222.59;8372065;34;21302;-69